sensor_id;sensor_type;location;lat;lon;timestamp;P1;durP1;ratioP1;P2;durP2;ratioP2
35606;SDS011;21729;58.392;15.656;2022-10-22T00:01:12;8.03;;;3.83;;
35606;SDS011;21729;58.392;15.656;2022-10-22T00:03:39;5.53;;;4.10;;
35606;SDS011;21729;58.392;15.656;2022-10-22T00:06:06;7.20;;;3.90;;
35606;SDS011;21729;58.392;15.656;2022-10-22T00:08:33;6.82;;;3.95;;
35606;SDS011;21729;58.392;15.656;2022-10-22T00:11:06;4.00;;;3.60;;
35606;SDS011;21729;58.392;15.656;2022-10-22T00:13:34;5.57;;;4.00;;
35606;SDS011;21729;58.392;15.656;2022-10-22T00:16:03;6.90;;;3.58;;
35606;SDS011;21729;58.392;15.656;2022-10-22T00:18:30;4.20;;;3.80;;
35606;SDS011;21729;58.392;15.656;2022-10-22T00:20:57;6.93;;;4.25;;
35606;SDS011;21729;58.392;15.656;2022-10-22T00:23:24;4.65;;;3.70;;
35606;SDS011;21729;58.392;15.656;2022-10-22T00:25:51;5.85;;;4.05;;
35606;SDS011;21729;58.392;15.656;2022-10-22T00:28:18;4.90;;;3.75;;
35606;SDS011;21729;58.392;15.656;2022-10-22T00:30:46;7.03;;;4.30;;
35606;SDS011;21729;58.392;15.656;2022-10-22T00:33:14;5.57;;;3.92;;
35606;SDS011;21729;58.392;15.656;2022-10-22T00:35:42;5.47;;;3.75;;
35606;SDS011;21729;58.392;15.656;2022-10-22T00:38:10;5.97;;;4.03;;
35606;SDS011;21729;58.392;15.656;2022-10-22T00:40:37;5.10;;;3.55;;
35606;SDS011;21729;58.392;15.656;2022-10-22T00:43:04;4.43;;;3.75;;
35606;SDS011;21729;58.392;15.656;2022-10-22T00:45:31;4.88;;;3.50;;
35606;SDS011;21729;58.392;15.656;2022-10-22T00:47:59;6.35;;;4.18;;
35606;SDS011;21729;58.392;15.656;2022-10-22T00:50:32;6.35;;;4.30;;
35606;SDS011;21729;58.392;15.656;2022-10-22T00:53:01;7.95;;;4.20;;
35606;SDS011;21729;58.392;15.656;2022-10-22T00:55:29;5.60;;;4.13;;
35606;SDS011;21729;58.392;15.656;2022-10-22T00:57:58;4.30;;;3.80;;
35606;SDS011;21729;58.392;15.656;2022-10-22T01:00:26;6.57;;;4.10;;
35606;SDS011;21729;58.392;15.656;2022-10-22T01:02:54;6.33;;;3.83;;
35606;SDS011;21729;58.392;15.656;2022-10-22T01:05:21;5.83;;;4.00;;
35606;SDS011;21729;58.392;15.656;2022-10-22T01:07:50;5.20;;;4.00;;
35606;SDS011;21729;58.392;15.656;2022-10-22T01:13:16;6.65;;;3.50;;
35606;SDS011;21729;58.392;15.656;2022-10-22T01:15:52;5.38;;;4.00;;
35606;SDS011;21729;58.392;15.656;2022-10-22T01:18:27;5.20;;;3.70;;
35606;SDS011;21729;58.392;15.656;2022-10-22T01:21:06;6.10;;;4.00;;
35606;SDS011;21729;58.392;15.656;2022-10-22T01:23:52;5.47;;;3.90;;
35606;SDS011;21729;58.392;15.656;2022-10-22T01:26:41;6.32;;;3.60;;
35606;SDS011;21729;58.392;15.656;2022-10-22T01:29:21;5.83;;;3.60;;
35606;SDS011;21729;58.392;15.656;2022-10-22T01:31:55;5.47;;;3.83;;
35606;SDS011;21729;58.392;15.656;2022-10-22T01:34:26;6.40;;;3.85;;
35606;SDS011;21729;58.392;15.656;2022-10-22T01:36:54;5.20;;;3.72;;
35606;SDS011;21729;58.392;15.656;2022-10-22T01:39:24;5.10;;;3.67;;
35606;SDS011;21729;58.392;15.656;2022-10-22T01:41:53;5.22;;;3.28;;
35606;SDS011;21729;58.392;15.656;2022-10-22T01:44:23;6.18;;;3.70;;
35606;SDS011;21729;58.392;15.656;2022-10-22T01:46:52;5.03;;;3.38;;
35606;SDS011;21729;58.392;15.656;2022-10-22T01:49:30;5.60;;;3.53;;
35606;SDS011;21729;58.392;15.656;2022-10-22T01:52:05;5.40;;;3.22;;
35606;SDS011;21729;58.392;15.656;2022-10-22T01:54:42;5.30;;;3.70;;
35606;SDS011;21729;58.392;15.656;2022-10-22T01:57:16;6.13;;;3.50;;
35606;SDS011;21729;58.392;15.656;2022-10-22T01:59:56;5.80;;;3.30;;
35606;SDS011;21729;58.392;15.656;2022-10-22T02:02:29;5.60;;;3.38;;
35606;SDS011;21729;58.392;15.656;2022-10-22T02:05:02;4.45;;;3.35;;
35606;SDS011;21729;58.392;15.656;2022-10-22T02:07:34;5.47;;;3.10;;
35606;SDS011;21729;58.392;15.656;2022-10-22T02:10:06;4.72;;;3.20;;
35606;SDS011;21729;58.392;15.656;2022-10-22T02:12:35;6.47;;;3.53;;
35606;SDS011;21729;58.392;15.656;2022-10-22T02:15:06;8.03;;;3.80;;
35606;SDS011;21729;58.392;15.656;2022-10-22T02:17:34;5.85;;;3.45;;
35606;SDS011;21729;58.392;15.656;2022-10-22T02:20:05;6.32;;;3.60;;
35606;SDS011;21729;58.392;15.656;2022-10-22T02:22:37;4.38;;;3.45;;
35606;SDS011;21729;58.392;15.656;2022-10-22T02:25:05;5.50;;;3.42;;
35606;SDS011;21729;58.392;15.656;2022-10-22T02:27:35;5.97;;;3.42;;
35606;SDS011;21729;58.392;15.656;2022-10-22T02:30:10;7.68;;;3.60;;
35606;SDS011;21729;58.392;15.656;2022-10-22T02:32:45;7.27;;;3.80;;
35606;SDS011;21729;58.392;15.656;2022-10-22T02:35:17;5.15;;;3.70;;
35606;SDS011;21729;58.392;15.656;2022-10-22T02:37:46;5.40;;;3.55;;
35606;SDS011;21729;58.392;15.656;2022-10-22T02:40:14;4.65;;;3.55;;
35606;SDS011;21729;58.392;15.656;2022-10-22T02:42:42;5.53;;;3.95;;
35606;SDS011;21729;58.392;15.656;2022-10-22T02:45:13;4.43;;;3.72;;
35606;SDS011;21729;58.392;15.656;2022-10-22T02:47:41;6.75;;;4.00;;
35606;SDS011;21729;58.392;15.656;2022-10-22T02:50:08;7.25;;;3.70;;
35606;SDS011;21729;58.392;15.656;2022-10-22T02:52:35;5.85;;;3.75;;
35606;SDS011;21729;58.392;15.656;2022-10-22T02:55:03;4.25;;;3.33;;
35606;SDS011;21729;58.392;15.656;2022-10-22T02:57:31;4.43;;;3.55;;
35606;SDS011;21729;58.392;15.656;2022-10-22T02:59:58;5.80;;;4.00;;
35606;SDS011;21729;58.392;15.656;2022-10-22T03:02:27;6.40;;;3.83;;
35606;SDS011;21729;58.392;15.656;2022-10-22T03:04:54;5.63;;;3.85;;
35606;SDS011;21729;58.392;15.656;2022-10-22T03:07:21;6.80;;;4.22;;
35606;SDS011;21729;58.392;15.656;2022-10-22T03:09:48;6.32;;;3.80;;
35606;SDS011;21729;58.392;15.656;2022-10-22T03:12:15;4.80;;;3.47;;
35606;SDS011;21729;58.392;15.656;2022-10-22T03:14:42;6.63;;;3.90;;
35606;SDS011;21729;58.392;15.656;2022-10-22T03:17:09;7.30;;;4.13;;
35606;SDS011;21729;58.392;15.656;2022-10-22T03:19:37;6.20;;;4.07;;
35606;SDS011;21729;58.392;15.656;2022-10-22T03:22:06;8.25;;;4.38;;
35606;SDS011;21729;58.392;15.656;2022-10-22T03:24:36;6.63;;;4.22;;
35606;SDS011;21729;58.392;15.656;2022-10-22T03:27:06;6.27;;;4.20;;
35606;SDS011;21729;58.392;15.656;2022-10-22T03:29:34;6.78;;;3.78;;
35606;SDS011;21729;58.392;15.656;2022-10-22T03:32:03;5.72;;;4.00;;
35606;SDS011;21729;58.392;15.656;2022-10-22T03:34:31;6.22;;;4.45;;
35606;SDS011;21729;58.392;15.656;2022-10-22T03:36:59;7.80;;;4.07;;
35606;SDS011;21729;58.392;15.656;2022-10-22T03:39:27;7.40;;;4.10;;
35606;SDS011;21729;58.392;15.656;2022-10-22T03:41:55;6.43;;;4.97;;
35606;SDS011;21729;58.392;15.656;2022-10-22T03:44:23;7.80;;;4.22;;
35606;SDS011;21729;58.392;15.656;2022-10-22T03:46:50;6.15;;;4.25;;
35606;SDS011;21729;58.392;15.656;2022-10-22T03:49:18;6.88;;;3.70;;
35606;SDS011;21729;58.392;15.656;2022-10-22T03:51:45;6.85;;;4.13;;
35606;SDS011;21729;58.392;15.656;2022-10-22T03:54:14;6.70;;;3.77;;
35606;SDS011;21729;58.392;15.656;2022-10-22T03:56:41;6.55;;;3.97;;
35606;SDS011;21729;58.392;15.656;2022-10-22T03:59:08;6.30;;;4.10;;
35606;SDS011;21729;58.392;15.656;2022-10-22T04:01:37;6.90;;;3.90;;
35606;SDS011;21729;58.392;15.656;2022-10-22T04:04:04;6.45;;;4.20;;
35606;SDS011;21729;58.392;15.656;2022-10-22T04:06:31;7.20;;;4.63;;
35606;SDS011;21729;58.392;15.656;2022-10-22T04:08:58;7.43;;;4.40;;
35606;SDS011;21729;58.392;15.656;2022-10-22T04:11:28;7.03;;;4.40;;
35606;SDS011;21729;58.392;15.656;2022-10-22T04:13:55;8.07;;;4.38;;
35606;SDS011;21729;58.392;15.656;2022-10-22T04:16:22;9.60;;;4.40;;
35606;SDS011;21729;58.392;15.656;2022-10-22T04:18:49;8.30;;;4.43;;
35606;SDS011;21729;58.392;15.656;2022-10-22T04:21:17;6.50;;;4.33;;
35606;SDS011;21729;58.392;15.656;2022-10-22T04:23:45;6.95;;;4.55;;
35606;SDS011;21729;58.392;15.656;2022-10-22T04:26:14;7.60;;;4.35;;
35606;SDS011;21729;58.392;15.656;2022-10-22T04:28:43;8.00;;;4.25;;
35606;SDS011;21729;58.392;15.656;2022-10-22T04:31:11;8.60;;;4.80;;
35606;SDS011;21729;58.392;15.656;2022-10-22T04:33:40;8.02;;;4.32;;
35606;SDS011;21729;58.392;15.656;2022-10-22T04:36:08;6.72;;;4.10;;
35606;SDS011;21729;58.392;15.656;2022-10-22T04:38:36;6.88;;;4.57;;
35606;SDS011;21729;58.392;15.656;2022-10-22T04:41:10;9.13;;;4.50;;
35606;SDS011;21729;58.392;15.656;2022-10-22T04:43:38;8.18;;;4.70;;
35606;SDS011;21729;58.392;15.656;2022-10-22T04:46:07;8.25;;;4.25;;
35606;SDS011;21729;58.392;15.656;2022-10-22T04:48:35;8.80;;;4.60;;
35606;SDS011;21729;58.392;15.656;2022-10-22T04:51:02;8.48;;;4.93;;
35606;SDS011;21729;58.392;15.656;2022-10-22T04:53:30;8.05;;;4.70;;
35606;SDS011;21729;58.392;15.656;2022-10-22T04:56:05;7.20;;;4.97;;
35606;SDS011;21729;58.392;15.656;2022-10-22T04:58:34;7.38;;;4.55;;
35606;SDS011;21729;58.392;15.656;2022-10-22T05:01:09;7.68;;;4.93;;
35606;SDS011;21729;58.392;15.656;2022-10-22T05:03:37;11.50;;;4.80;;
35606;SDS011;21729;58.392;15.656;2022-10-22T05:06:05;6.93;;;4.67;;
35606;SDS011;21729;58.392;15.656;2022-10-22T05:08:32;8.75;;;4.65;;
35606;SDS011;21729;58.392;15.656;2022-10-22T05:11:00;8.65;;;4.70;;
35606;SDS011;21729;58.392;15.656;2022-10-22T05:13:27;6.38;;;5.05;;
35606;SDS011;21729;58.392;15.656;2022-10-22T05:15:54;7.63;;;5.30;;
35606;SDS011;21729;58.392;15.656;2022-10-22T05:18:23;9.97;;;5.33;;
35606;SDS011;21729;58.392;15.656;2022-10-22T05:20:50;10.18;;;5.15;;
35606;SDS011;21729;58.392;15.656;2022-10-22T05:23:17;7.47;;;5.15;;
35606;SDS011;21729;58.392;15.656;2022-10-22T05:25:44;9.13;;;5.20;;
35606;SDS011;21729;58.392;15.656;2022-10-22T05:28:11;8.23;;;4.70;;
35606;SDS011;21729;58.392;15.656;2022-10-22T05:30:38;9.18;;;5.25;;
35606;SDS011;21729;58.392;15.656;2022-10-22T05:33:05;9.65;;;5.80;;
35606;SDS011;21729;58.392;15.656;2022-10-22T05:35:33;8.55;;;5.75;;
35606;SDS011;21729;58.392;15.656;2022-10-22T05:38:00;7.77;;;5.60;;
35606;SDS011;21729;58.392;15.656;2022-10-22T05:40:27;8.65;;;5.78;;
35606;SDS011;21729;58.392;15.656;2022-10-22T05:42:54;8.50;;;5.55;;
35606;SDS011;21729;58.392;15.656;2022-10-22T05:45:23;7.77;;;5.77;;
35606;SDS011;21729;58.392;15.656;2022-10-22T05:47:50;8.20;;;5.40;;
35606;SDS011;21729;58.392;15.656;2022-10-22T05:50:20;11.23;;;5.90;;
35606;SDS011;21729;58.392;15.656;2022-10-22T05:52:49;8.50;;;5.68;;
35606;SDS011;21729;58.392;15.656;2022-10-22T05:55:16;8.80;;;5.53;;
35606;SDS011;21729;58.392;15.656;2022-10-22T05:57:43;9.40;;;6.35;;
35606;SDS011;21729;58.392;15.656;2022-10-22T06:00:10;8.88;;;5.45;;
35606;SDS011;21729;58.392;15.656;2022-10-22T06:02:38;8.07;;;5.53;;
35606;SDS011;21729;58.392;15.656;2022-10-22T06:05:05;8.87;;;6.10;;
35606;SDS011;21729;58.392;15.656;2022-10-22T06:07:32;8.75;;;5.68;;
35606;SDS011;21729;58.392;15.656;2022-10-22T06:10:01;8.43;;;5.35;;
35606;SDS011;21729;58.392;15.656;2022-10-22T06:12:29;7.70;;;5.28;;
35606;SDS011;21729;58.392;15.656;2022-10-22T06:14:56;10.35;;;5.32;;
35606;SDS011;21729;58.392;15.656;2022-10-22T06:17:23;8.75;;;5.43;;
35606;SDS011;21729;58.392;15.656;2022-10-22T06:19:50;9.20;;;5.65;;
35606;SDS011;21729;58.392;15.656;2022-10-22T06:22:17;9.65;;;5.30;;
35606;SDS011;21729;58.392;15.656;2022-10-22T06:24:44;9.32;;;6.22;;
35606;SDS011;21729;58.392;15.656;2022-10-22T06:27:12;11.40;;;5.83;;
35606;SDS011;21729;58.392;15.656;2022-10-22T06:29:39;9.70;;;5.75;;
35606;SDS011;21729;58.392;15.656;2022-10-22T06:32:07;9.13;;;5.97;;
35606;SDS011;21729;58.392;15.656;2022-10-22T06:34:34;11.23;;;6.65;;
35606;SDS011;21729;58.392;15.656;2022-10-22T06:37:01;11.38;;;5.88;;
35606;SDS011;21729;58.392;15.656;2022-10-22T06:39:28;8.77;;;6.03;;
35606;SDS011;21729;58.392;15.656;2022-10-22T06:41:55;9.68;;;6.63;;
35606;SDS011;21729;58.392;15.656;2022-10-22T06:44:23;10.13;;;6.47;;
35606;SDS011;21729;58.392;15.656;2022-10-22T06:46:50;13.73;;;6.75;;
35606;SDS011;21729;58.392;15.656;2022-10-22T06:49:18;11.48;;;6.90;;
35606;SDS011;21729;58.392;15.656;2022-10-22T06:51:50;9.90;;;6.80;;
35606;SDS011;21729;58.392;15.656;2022-10-22T06:54:17;9.30;;;6.27;;
35606;SDS011;21729;58.392;15.656;2022-10-22T06:56:44;11.52;;;6.85;;
35606;SDS011;21729;58.392;15.656;2022-10-22T06:59:14;8.98;;;6.20;;
35606;SDS011;21729;58.392;15.656;2022-10-22T07:01:43;8.50;;;6.65;;
35606;SDS011;21729;58.392;15.656;2022-10-22T07:04:10;9.73;;;6.75;;
35606;SDS011;21729;58.392;15.656;2022-10-22T07:06:37;10.23;;;6.80;;
35606;SDS011;21729;58.392;15.656;2022-10-22T07:09:04;11.47;;;6.73;;
35606;SDS011;21729;58.392;15.656;2022-10-22T07:11:35;9.55;;;6.43;;
35606;SDS011;21729;58.392;15.656;2022-10-22T07:14:05;10.50;;;6.70;;
35606;SDS011;21729;58.392;15.656;2022-10-22T07:16:32;9.15;;;6.78;;
35606;SDS011;21729;58.392;15.656;2022-10-22T07:19:00;10.05;;;6.97;;
35606;SDS011;21729;58.392;15.656;2022-10-22T07:21:29;11.35;;;6.88;;
35606;SDS011;21729;58.392;15.656;2022-10-22T07:23:56;12.40;;;7.22;;
35606;SDS011;21729;58.392;15.656;2022-10-22T07:26:24;9.75;;;7.18;;
35606;SDS011;21729;58.392;15.656;2022-10-22T07:28:54;13.32;;;7.68;;
35606;SDS011;21729;58.392;15.656;2022-10-22T07:31:22;13.47;;;7.60;;
35606;SDS011;21729;58.392;15.656;2022-10-22T07:33:49;11.63;;;7.78;;
35606;SDS011;21729;58.392;15.656;2022-10-22T07:36:18;13.13;;;7.75;;
35606;SDS011;21729;58.392;15.656;2022-10-22T07:38:46;12.38;;;7.45;;
35606;SDS011;21729;58.392;15.656;2022-10-22T07:41:15;12.02;;;7.40;;
35606;SDS011;21729;58.392;15.656;2022-10-22T07:43:42;13.13;;;7.80;;
35606;SDS011;21729;58.392;15.656;2022-10-22T07:46:09;12.10;;;7.45;;
35606;SDS011;21729;58.392;15.656;2022-10-22T07:48:36;13.83;;;7.93;;
35606;SDS011;21729;58.392;15.656;2022-10-22T07:51:04;12.95;;;7.18;;
35606;SDS011;21729;58.392;15.656;2022-10-22T07:53:32;13.80;;;8.20;;
35606;SDS011;21729;58.392;15.656;2022-10-22T07:56:00;11.77;;;7.53;;
35606;SDS011;21729;58.392;15.656;2022-10-22T07:58:27;11.85;;;8.13;;
35606;SDS011;21729;58.392;15.656;2022-10-22T08:00:54;12.30;;;7.30;;
35606;SDS011;21729;58.392;15.656;2022-10-22T08:03:22;11.05;;;7.65;;
35606;SDS011;21729;58.392;15.656;2022-10-22T08:05:50;13.13;;;7.60;;
35606;SDS011;21729;58.392;15.656;2022-10-22T08:08:17;10.63;;;7.55;;
35606;SDS011;21729;58.392;15.656;2022-10-22T08:10:47;11.02;;;7.97;;
35606;SDS011;21729;58.392;15.656;2022-10-22T08:13:16;13.13;;;7.82;;
35606;SDS011;21729;58.392;15.656;2022-10-22T08:15:44;11.98;;;7.45;;
35606;SDS011;21729;58.392;15.656;2022-10-22T08:18:12;9.93;;;6.80;;
35606;SDS011;21729;58.392;15.656;2022-10-22T08:20:39;9.18;;;6.72;;
35606;SDS011;21729;58.392;15.656;2022-10-22T08:23:06;11.53;;;7.30;;
35606;SDS011;21729;58.392;15.656;2022-10-22T08:25:34;9.97;;;7.00;;
35606;SDS011;21729;58.392;15.656;2022-10-22T08:28:02;9.75;;;6.88;;
35606;SDS011;21729;58.392;15.656;2022-10-22T08:30:30;9.85;;;6.95;;
35606;SDS011;21729;58.392;15.656;2022-10-22T08:32:58;10.30;;;7.15;;
35606;SDS011;21729;58.392;15.656;2022-10-22T08:35:25;9.95;;;7.00;;
35606;SDS011;21729;58.392;15.656;2022-10-22T08:37:52;9.25;;;6.75;;
35606;SDS011;21729;58.392;15.656;2022-10-22T08:40:20;12.38;;;7.00;;
35606;SDS011;21729;58.392;15.656;2022-10-22T08:43:05;9.93;;;7.25;;
35606;SDS011;21729;58.392;15.656;2022-10-22T08:45:49;11.63;;;7.07;;
35606;SDS011;21729;58.392;15.656;2022-10-22T08:48:34;10.13;;;6.93;;
35606;SDS011;21729;58.392;15.656;2022-10-22T08:51:10;11.40;;;7.10;;
35606;SDS011;21729;58.392;15.656;2022-10-22T08:53:40;10.75;;;6.90;;
35606;SDS011;21729;58.392;15.656;2022-10-22T08:56:15;9.45;;;7.10;;
35606;SDS011;21729;58.392;15.656;2022-10-22T08:58:44;11.50;;;7.90;;
35606;SDS011;21729;58.392;15.656;2022-10-22T09:01:18;11.20;;;7.73;;
35606;SDS011;21729;58.392;15.656;2022-10-22T09:03:48;11.02;;;7.97;;
35606;SDS011;21729;58.392;15.656;2022-10-22T09:06:18;9.82;;;7.15;;
35606;SDS011;21729;58.392;15.656;2022-10-22T09:08:47;10.50;;;7.23;;
35606;SDS011;21729;58.392;15.656;2022-10-22T09:11:20;11.80;;;7.47;;
35606;SDS011;21729;58.392;15.656;2022-10-22T09:13:51;8.77;;;6.80;;
35606;SDS011;21729;58.392;15.656;2022-10-22T09:16:23;10.50;;;6.40;;
35606;SDS011;21729;58.392;15.656;2022-10-22T09:18:59;9.48;;;6.70;;
35606;SDS011;21729;58.392;15.656;2022-10-22T09:21:37;11.02;;;6.88;;
35606;SDS011;21729;58.392;15.656;2022-10-22T09:24:12;8.52;;;6.70;;
35606;SDS011;21729;58.392;15.656;2022-10-22T09:26:54;8.30;;;6.07;;
35606;SDS011;21729;58.392;15.656;2022-10-22T09:29:28;8.90;;;5.67;;
35606;SDS011;21729;58.392;15.656;2022-10-22T09:31:58;7.35;;;5.30;;
35606;SDS011;21729;58.392;15.656;2022-10-22T09:34:25;6.95;;;5.22;;
35606;SDS011;21729;58.392;15.656;2022-10-22T09:36:57;6.40;;;5.35;;
35606;SDS011;21729;58.392;15.656;2022-10-22T09:39:27;6.07;;;4.40;;
35606;SDS011;21729;58.392;15.656;2022-10-22T09:41:56;7.05;;;4.28;;
35606;SDS011;21729;58.392;15.656;2022-10-22T09:44:25;6.35;;;4.45;;
35606;SDS011;21729;58.392;15.656;2022-10-22T09:46:52;5.53;;;4.47;;
35606;SDS011;21729;58.392;15.656;2022-10-22T09:49:20;5.80;;;4.30;;
35606;SDS011;21729;58.392;15.656;2022-10-22T09:51:50;5.65;;;3.85;;
35606;SDS011;21729;58.392;15.656;2022-10-22T09:54:19;4.18;;;3.60;;
35606;SDS011;21729;58.392;15.656;2022-10-22T09:56:55;4.78;;;3.35;;
35606;SDS011;21729;58.392;15.656;2022-10-22T09:59:27;3.85;;;3.45;;
35606;SDS011;21729;58.392;15.656;2022-10-22T10:01:57;4.20;;;3.53;;
35606;SDS011;21729;58.392;15.656;2022-10-22T10:04:25;4.13;;;3.20;;
35606;SDS011;21729;58.392;15.656;2022-10-22T10:06:53;4.75;;;3.47;;
35606;SDS011;21729;58.392;15.656;2022-10-22T10:09:22;4.95;;;3.60;;
35606;SDS011;21729;58.392;15.656;2022-10-22T10:11:53;3.65;;;3.17;;
35606;SDS011;21729;58.392;15.656;2022-10-22T10:14:33;4.10;;;3.38;;
35606;SDS011;21729;58.392;15.656;2022-10-22T10:17:07;3.33;;;2.78;;
35606;SDS011;21729;58.392;15.656;2022-10-22T10:19:43;3.00;;;2.40;;
35606;SDS011;21729;58.392;15.656;2022-10-22T10:22:43;3.20;;;2.80;;
35606;SDS011;21729;58.392;15.656;2022-10-22T10:28:18;3.13;;;2.83;;
35606;SDS011;21729;58.392;15.656;2022-10-22T10:30:56;3.20;;;2.90;;
35606;SDS011;21729;58.392;15.656;2022-10-22T10:33:32;3.08;;;2.60;;
35606;SDS011;21729;58.392;15.656;2022-10-22T10:36:11;2.40;;;2.20;;
35606;SDS011;21729;58.392;15.656;2022-10-22T10:38:47;2.72;;;2.53;;
35606;SDS011;21729;58.392;15.656;2022-10-22T10:41:23;3.23;;;2.50;;
35606;SDS011;21729;58.392;15.656;2022-10-22T10:44:02;4.10;;;3.03;;
35606;SDS011;21729;58.392;15.656;2022-10-22T10:46:49;2.90;;;2.40;;
35606;SDS011;21729;58.392;15.656;2022-10-22T10:49:29;2.65;;;2.22;;
35606;SDS011;21729;58.392;15.656;2022-10-22T10:52:00;2.83;;;2.45;;
35606;SDS011;21729;58.392;15.656;2022-10-22T10:54:39;3.03;;;2.58;;
35606;SDS011;21729;58.392;15.656;2022-10-22T10:57:12;2.70;;;2.50;;
35606;SDS011;21729;58.392;15.656;2022-10-22T10:59:57;3.15;;;2.47;;
35606;SDS011;21729;58.392;15.656;2022-10-22T11:02:58;2.65;;;2.42;;
35606;SDS011;21729;58.392;15.656;2022-10-22T11:05:42;3.13;;;2.50;;
35606;SDS011;21729;58.392;15.656;2022-10-22T11:08:14;2.60;;;2.40;;
35606;SDS011;21729;58.392;15.656;2022-10-22T11:10:46;3.10;;;2.80;;
35606;SDS011;21729;58.392;15.656;2022-10-22T11:13:18;3.93;;;2.87;;
35606;SDS011;21729;58.392;15.656;2022-10-22T11:15:55;2.80;;;2.58;;
35606;SDS011;21729;58.392;15.656;2022-10-22T11:18:29;2.60;;;2.40;;
35606;SDS011;21729;58.392;15.656;2022-10-22T11:21:12;3.05;;;2.35;;
35606;SDS011;21729;58.392;15.656;2022-10-22T11:23:47;3.20;;;2.90;;
35606;SDS011;21729;58.392;15.656;2022-10-22T11:26:24;3.15;;;2.58;;
35606;SDS011;21729;58.392;15.656;2022-10-22T11:28:57;3.10;;;2.80;;
35606;SDS011;21729;58.392;15.656;2022-10-22T11:31:27;4.53;;;3.10;;
35606;SDS011;21729;58.392;15.656;2022-10-22T11:34:00;3.90;;;3.20;;
35606;SDS011;21729;58.392;15.656;2022-10-22T11:36:32;3.88;;;3.10;;
35606;SDS011;21729;58.392;15.656;2022-10-22T11:39:01;4.38;;;3.47;;
35606;SDS011;21729;58.392;15.656;2022-10-22T11:41:29;3.35;;;3.03;;
35606;SDS011;21729;58.392;15.656;2022-10-22T11:44:04;4.18;;;3.40;;
35606;SDS011;21729;58.392;15.656;2022-10-22T11:46:39;3.42;;;3.10;;
35606;SDS011;21729;58.392;15.656;2022-10-22T11:49:18;3.97;;;3.58;;
35606;SDS011;21729;58.392;15.656;2022-10-22T11:51:49;3.95;;;2.80;;
35606;SDS011;21729;58.392;15.656;2022-10-22T11:54:31;3.22;;;2.92;;
35606;SDS011;21729;58.392;15.656;2022-10-22T11:57:20;4.10;;;3.00;;
35606;SDS011;21729;58.392;15.656;2022-10-22T11:59:51;4.38;;;2.90;;
35606;SDS011;21729;58.392;15.656;2022-10-22T12:08:17;2.95;;;2.65;;
35606;SDS011;21729;58.392;15.656;2022-10-22T12:10:57;3.10;;;2.80;;
35606;SDS011;21729;58.392;15.656;2022-10-22T12:13:30;3.15;;;2.85;;
35606;SDS011;21729;58.392;15.656;2022-10-22T12:16:00;2.92;;;2.60;;
35606;SDS011;21729;58.392;15.656;2022-10-22T12:18:32;3.15;;;2.83;;
35606;SDS011;21729;58.392;15.656;2022-10-22T12:21:09;3.03;;;2.72;;
35606;SDS011;21729;58.392;15.656;2022-10-22T12:23:38;2.90;;;2.40;;
35606;SDS011;21729;58.392;15.656;2022-10-22T12:26:05;3.47;;;2.58;;
35606;SDS011;21729;58.392;15.656;2022-10-22T12:28:55;3.03;;;2.72;;
35606;SDS011;21729;58.392;15.656;2022-10-22T12:31:23;3.03;;;2.40;;
35606;SDS011;21729;58.392;15.656;2022-10-22T12:33:59;3.47;;;2.67;;
35606;SDS011;21729;58.392;15.656;2022-10-22T12:36:28;3.08;;;2.78;;
35606;SDS011;21729;58.392;15.656;2022-10-22T12:38:58;3.50;;;3.20;;
35606;SDS011;21729;58.392;15.656;2022-10-22T12:41:29;3.83;;;2.95;;
35606;SDS011;21729;58.392;15.656;2022-10-22T12:44:00;3.83;;;2.95;;
35606;SDS011;21729;58.392;15.656;2022-10-22T12:46:29;3.90;;;2.70;;
35606;SDS011;21729;58.392;15.656;2022-10-22T12:48:59;4.53;;;2.95;;
35606;SDS011;21729;58.392;15.656;2022-10-22T12:51:28;3.75;;;3.38;;
35606;SDS011;21729;58.392;15.656;2022-10-22T12:54:05;5.13;;;3.60;;
35606;SDS011;21729;58.392;15.656;2022-10-22T12:56:34;3.13;;;2.83;;
35606;SDS011;21729;58.392;15.656;2022-10-22T12:59:04;3.23;;;2.93;;
35606;SDS011;21729;58.392;15.656;2022-10-22T13:01:37;3.25;;;2.88;;
35606;SDS011;21729;58.392;15.656;2022-10-22T13:04:17;3.30;;;3.00;;
35606;SDS011;21729;58.392;15.656;2022-10-22T13:06:49;4.07;;;3.00;;
35606;SDS011;21729;58.392;15.656;2022-10-22T13:09:19;3.42;;;3.13;;
35606;SDS011;21729;58.392;15.656;2022-10-22T13:11:48;3.40;;;3.10;;
35606;SDS011;21729;58.392;15.656;2022-10-22T13:14:25;3.20;;;2.90;;
35606;SDS011;21729;58.392;15.656;2022-10-22T13:17:04;3.35;;;3.05;;
35606;SDS011;21729;58.392;15.656;2022-10-22T13:19:37;3.75;;;3.35;;
35606;SDS011;21729;58.392;15.656;2022-10-22T13:22:27;5.63;;;4.70;;
35606;SDS011;21729;58.392;15.656;2022-10-22T13:24:56;4.72;;;4.10;;
35606;SDS011;21729;58.392;15.656;2022-10-22T13:27:25;4.85;;;4.18;;
35606;SDS011;21729;58.392;15.656;2022-10-22T13:29:54;4.57;;;4.18;;
35606;SDS011;21729;58.392;15.656;2022-10-22T13:32:26;5.03;;;3.97;;
35606;SDS011;21729;58.392;15.656;2022-10-22T13:34:58;4.50;;;4.10;;
35606;SDS011;21729;58.392;15.656;2022-10-22T13:37:29;5.20;;;4.30;;
35606;SDS011;21729;58.392;15.656;2022-10-22T13:39:58;5.00;;;4.32;;
35606;SDS011;21729;58.392;15.656;2022-10-22T13:42:25;5.35;;;4.63;;
35606;SDS011;21729;58.392;15.656;2022-10-22T13:44:54;5.13;;;4.57;;
35606;SDS011;21729;58.392;15.656;2022-10-22T13:47:25;4.97;;;4.57;;
35606;SDS011;21729;58.392;15.656;2022-10-22T13:49:54;5.03;;;4.53;;
35606;SDS011;21729;58.392;15.656;2022-10-22T13:52:28;5.45;;;4.78;;
35606;SDS011;21729;58.392;15.656;2022-10-22T13:55:11;5.65;;;5.05;;
35606;SDS011;21729;58.392;15.656;2022-10-22T13:57:39;5.90;;;5.22;;
35606;SDS011;21729;58.392;15.656;2022-10-22T14:00:07;5.38;;;4.88;;
35606;SDS011;21729;58.392;15.656;2022-10-22T14:02:37;6.28;;;5.18;;
35606;SDS011;21729;58.392;15.656;2022-10-22T14:05:04;6.32;;;5.30;;
35606;SDS011;21729;58.392;15.656;2022-10-22T14:07:35;6.50;;;5.18;;
35606;SDS011;21729;58.392;15.656;2022-10-22T14:10:04;6.53;;;5.30;;
35606;SDS011;21729;58.392;15.656;2022-10-22T14:12:39;6.20;;;5.20;;
35606;SDS011;21729;58.392;15.656;2022-10-22T14:15:06;5.55;;;5.00;;
35606;SDS011;21729;58.392;15.656;2022-10-22T14:17:35;5.90;;;5.10;;
35606;SDS011;21729;58.392;15.656;2022-10-22T14:20:03;6.45;;;5.22;;
35606;SDS011;21729;58.392;15.656;2022-10-22T14:22:30;6.68;;;5.75;;
35606;SDS011;21729;58.392;15.656;2022-10-22T14:24:59;7.15;;;5.65;;
35606;SDS011;21729;58.392;15.656;2022-10-22T14:27:26;6.53;;;5.43;;
35606;SDS011;21729;58.392;15.656;2022-10-22T14:29:53;6.50;;;5.60;;
35606;SDS011;21729;58.392;15.656;2022-10-22T14:32:20;5.90;;;5.30;;
35606;SDS011;21729;58.392;15.656;2022-10-22T14:34:47;5.90;;;5.22;;
35606;SDS011;21729;58.392;15.656;2022-10-22T14:37:15;6.68;;;5.72;;
35606;SDS011;21729;58.392;15.656;2022-10-22T14:39:44;7.10;;;5.97;;
35606;SDS011;21729;58.392;15.656;2022-10-22T14:42:18;8.40;;;5.88;;
35606;SDS011;21729;58.392;15.656;2022-10-22T14:44:45;7.40;;;6.22;;
35606;SDS011;21729;58.392;15.656;2022-10-22T14:47:12;7.88;;;5.95;;
35606;SDS011;21729;58.392;15.656;2022-10-22T14:49:39;8.30;;;6.37;;
35606;SDS011;21729;58.392;15.656;2022-10-22T14:52:06;7.05;;;5.93;;
35606;SDS011;21729;58.392;15.656;2022-10-22T14:54:33;8.32;;;6.40;;
35606;SDS011;21729;58.392;15.656;2022-10-22T14:57:01;8.75;;;6.10;;
35606;SDS011;21729;58.392;15.656;2022-10-22T14:59:30;7.20;;;6.23;;
35606;SDS011;21729;58.392;15.656;2022-10-22T15:01:57;8.40;;;6.38;;
35606;SDS011;21729;58.392;15.656;2022-10-22T15:04:24;8.00;;;6.40;;